sensor_id;sensor_type;location;lat;lon;timestamp;pressure;altitude;pressure_sealevel;temperature;humidity
37078;BME280;22989;55.998;37.212;2022-08-05T00:00:59;99573.78;;;19.81;62.21
37078;BME280;22989;55.998;37.212;2022-08-05T00:03:24;99572.88;;;19.82;62.15
37078;BME280;22989;55.998;37.212;2022-08-05T00:05:50;99570.25;;;19.82;62.21
37078;BME280;22989;55.998;37.212;2022-08-05T00:08:16;99574.66;;;19.81;62.17
37078;BME280;22989;55.998;37.212;2022-08-05T00:10:42;99563.25;;;19.84;62.25
37078;BME280;22989;55.998;37.212;2022-08-05T00:13:07;99571.88;;;19.86;62.08
37078;BME280;22989;55.998;37.212;2022-08-05T00:15:33;99573.63;;;19.85;62.37
37078;BME280;22989;55.998;37.212;2022-08-05T00:17:59;99564.09;;;19.84;62.20
37078;BME280;22989;55.998;37.212;2022-08-05T00:20:24;99566.69;;;19.84;62.22
37078;BME280;22989;55.998;37.212;2022-08-05T00:22:50;99564.94;;;19.85;62.27
37078;BME280;22989;55.998;37.212;2022-08-05T00:25:16;99567.53;;;19.86;62.30
37078;BME280;22989;55.998;37.212;2022-08-05T00:27:42;99564.03;;;19.86;62.31
37078;BME280;22989;55.998;37.212;2022-08-05T00:30:08;99557.97;;;19.85;62.49
37078;BME280;22989;55.998;37.212;2022-08-05T00:32:34;99560.63;;;19.84;62.43
37078;BME280;22989;55.998;37.212;2022-08-05T00:35:00;99556.25;;;19.84;62.48
37078;BME280;22989;55.998;37.212;2022-08-05T00:37:26;99560.53;;;19.87;62.35
37078;BME280;22989;55.998;37.212;2022-08-05T00:39:52;99560.53;;;19.87;62.55
37078;BME280;22989;55.998;37.212;2022-08-05T00:42:34;99561.44;;;19.86;62.56
37078;BME280;22989;55.998;37.212;2022-08-05T00:45:01;99558.09;;;19.82;62.42
37078;BME280;22989;55.998;37.212;2022-08-05T00:47:27;99559.00;;;19.79;62.58
37078;BME280;22989;55.998;37.212;2022-08-05T00:49:53;99561.69;;;19.76;62.63
37078;BME280;22989;55.998;37.212;2022-08-05T00:52:19;99573.97;;;19.74;62.94
37078;BME280;22989;55.998;37.212;2022-08-05T00:54:45;99570.69;;;19.68;63.09
37078;BME280;22989;55.998;37.212;2022-08-05T00:57:10;99568.28;;;19.61;63.37
37078;BME280;22989;55.998;37.212;2022-08-05T00:59:36;99564.09;;;19.56;63.29
37078;BME280;22989;55.998;37.212;2022-08-05T01:02:02;99562.50;;;19.52;63.91
37078;BME280;22989;55.998;37.212;2022-08-05T01:04:28;99564.25;;;19.51;63.87
37078;BME280;22989;55.998;37.212;2022-08-05T01:06:54;99557.31;;;19.50;63.96
37078;BME280;22989;55.998;37.212;2022-08-05T01:09:20;99556.50;;;19.48;64.00
37078;BME280;22989;55.998;37.212;2022-08-05T01:11:48;99556.56;;;19.47;64.30
37078;BME280;22989;55.998;37.212;2022-08-05T01:14:34;99554.91;;;19.44;64.57
37078;BME280;22989;55.998;37.212;2022-08-05T01:17:05;99556.84;;;19.37;64.48
37078;BME280;22989;55.998;37.212;2022-08-05T01:19:35;99559.56;;;19.34;64.64
37078;BME280;22989;55.998;37.212;2022-08-05T01:22:24;99558.75;;;19.32;65.06
37078;BME280;22989;55.998;37.212;2022-08-05T01:30:35;99564.16;;;19.26;65.07
37078;BME280;22989;55.998;37.212;2022-08-05T01:33:05;99570.31;;;19.23;65.20
37078;BME280;22989;55.998;37.212;2022-08-05T01:35:33;99569.56;;;19.20;65.17
37078;BME280;22989;55.998;37.212;2022-08-05T01:38:01;99565.28;;;19.17;65.53
37078;BME280;22989;55.998;37.212;2022-08-05T01:40:30;99563.56;;;19.16;65.63
37078;BME280;22989;55.998;37.212;2022-08-05T01:42:59;99561.81;;;19.17;65.69
37078;BME280;22989;55.998;37.212;2022-08-05T01:45:29;99563.56;;;19.16;65.88
37078;BME280;22989;55.998;37.212;2022-08-05T01:47:56;99567.94;;;19.16;65.89
37078;BME280;22989;55.998;37.212;2022-08-05T01:50:36;99566.16;;;19.18;66.16
37078;BME280;22989;55.998;37.212;2022-08-05T01:53:06;99563.56;;;19.16;66.09
37078;BME280;22989;55.998;37.212;2022-08-05T01:55:35;99565.31;;;19.16;66.01
37078;BME280;22989;55.998;37.212;2022-08-05T01:58:03;99555.75;;;19.16;65.98
37078;BME280;22989;55.998;37.212;2022-08-05T02:00:31;99554.94;;;19.14;65.93
37078;BME280;22989;55.998;37.212;2022-08-05T02:03:02;99562.72;;;19.16;66.15
37078;BME280;22989;55.998;37.212;2022-08-05T02:05:32;99563.56;;;19.16;66.23
37078;BME280;22989;55.998;37.212;2022-08-05T02:07:59;99566.16;;;19.18;66.03
37078;BME280;22989;55.998;37.212;2022-08-05T02:10:26;99562.56;;;19.20;66.12
37078;BME280;22989;55.998;37.212;2022-08-05T02:12:55;99565.91;;;19.25;66.15
37078;BME280;22989;55.998;37.212;2022-08-05T02:15:25;99562.28;;;19.29;66.08
37078;BME280;22989;55.998;37.212;2022-08-05T02:18:24;99563.94;;;19.32;66.15
37078;BME280;22989;55.998;37.212;2022-08-05T02:20:53;99569.13;;;19.34;66.11
37078;BME280;22989;55.998;37.212;2022-08-05T02:23:25;99578.59;;;19.38;65.88
37078;BME280;22989;55.998;37.212;2022-08-05T02:25:53;99571.66;;;19.37;66.07
37078;BME280;22989;55.998;37.212;2022-08-05T02:28:27;99579.25;;;19.44;65.89
37078;BME280;22989;55.998;37.212;2022-08-05T02:31:05;99571.09;;;19.55;65.98
37078;BME280;22989;55.998;37.212;2022-08-05T02:33:35;99579.66;;;19.59;65.73
37078;BME280;22989;55.998;37.212;2022-08-05T02:36:02;99577.00;;;19.60;65.31
37078;BME280;22989;55.998;37.212;2022-08-05T02:38:29;99574.31;;;19.64;65.41
37078;BME280;22989;55.998;37.212;2022-08-05T02:40:57;99585.47;;;19.67;65.34
37078;BME280;22989;55.998;37.212;2022-08-05T02:43:24;99590.47;;;19.75;65.28
37078;BME280;22989;55.998;37.212;2022-08-05T02:45:51;99591.91;;;19.85;65.06
37078;BME280;22989;55.998;37.212;2022-08-05T02:48:18;99593.34;;;19.94;65.01
37078;BME280;22989;55.998;37.212;2022-08-05T02:50:45;99587.88;;;20.02;64.62
37078;BME280;22989;55.998;37.212;2022-08-05T02:53:15;99588.53;;;20.08;64.40
37078;BME280;22989;55.998;37.212;2022-08-05T02:55:45;99590.91;;;20.16;64.16
37078;BME280;22989;55.998;37.212;2022-08-05T02:58:15;99595.00;;;20.23;64.07
37078;BME280;22989;55.998;37.212;2022-08-05T03:00:41;99594.69;;;20.33;63.79
37078;BME280;22989;55.998;37.212;2022-08-05T03:03:09;99597.19;;;20.36;63.71
37078;BME280;22989;55.998;37.212;2022-08-05T03:05:37;99591.66;;;20.45;63.65
37078;BME280;22989;55.998;37.212;2022-08-05T03:08:04;99596.56;;;20.54;63.10
37078;BME280;22989;55.998;37.212;2022-08-05T03:10:30;99600.03;;;20.55;62.91
37078;BME280;22989;55.998;37.212;2022-08-05T03:12:57;99593.94;;;20.54;63.31
37078;BME280;22989;55.998;37.212;2022-08-05T03:15:23;99594.50;;;20.62;62.87
37078;BME280;22989;55.998;37.212;2022-08-05T03:17:49;99598.78;;;20.65;63.37
37078;BME280;22989;55.998;37.212;2022-08-05T03:20:14;99596.63;;;20.78;62.63
37078;BME280;22989;55.998;37.212;2022-08-05T03:22:40;99602.44;;;20.86;62.41
37078;BME280;22989;55.998;37.212;2022-08-05T03:25:06;99593.81;;;21.76;60.85
37078;BME280;22989;55.998;37.212;2022-08-05T03:27:33;99596.53;;;22.77;58.00
37078;BME280;22989;55.998;37.212;2022-08-05T03:29:58;99598.25;;;22.98;56.95
37078;BME280;22989;55.998;37.212;2022-08-05T03:32:24;99602.31;;;23.79;55.01
37078;BME280;22989;55.998;37.212;2022-08-05T03:34:51;99603.66;;;24.58;52.57
37078;BME280;22989;55.998;37.212;2022-08-05T03:37:18;99601.97;;;25.56;50.75
37078;BME280;22989;55.998;37.212;2022-08-05T03:39:55;99595.97;;;27.03;47.78
37078;BME280;22989;55.998;37.212;2022-08-05T03:42:21;99601.09;;;27.62;45.57
37078;BME280;22989;55.998;37.212;2022-08-05T03:44:47;99602.56;;;27.25;45.30
37078;BME280;22989;55.998;37.212;2022-08-05T03:47:13;99607.34;;;26.32;47.11
37078;BME280;22989;55.998;37.212;2022-08-05T03:49:38;99607.81;;;25.77;48.07
37078;BME280;22989;55.998;37.212;2022-08-05T03:52:08;99606.50;;;25.38;48.77
37078;BME280;22989;55.998;37.212;2022-08-05T03:54:44;99602.22;;;25.68;49.01
37078;BME280;22989;55.998;37.212;2022-08-05T03:57:13;99607.66;;;26.56;47.15
37078;BME280;22989;55.998;37.212;2022-08-05T03:59:48;99614.78;;;27.55;45.13
37078;BME280;22989;55.998;37.212;2022-08-05T04:02:17;99605.81;;;29.02;42.72
37078;BME280;22989;55.998;37.212;2022-08-05T04:04:44;99611.00;;;30.60;39.95
37078;BME280;22989;55.998;37.212;2022-08-05T04:07:10;99617.31;;;31.71;37.75
37078;BME280;22989;55.998;37.212;2022-08-05T04:09:36;99613.75;;;31.82;36.09
37078;BME280;22989;55.998;37.212;2022-08-05T04:12:02;99617.28;;;30.93;37.14
37078;BME280;22989;55.998;37.212;2022-08-05T04:14:29;99624.41;;;29.88;38.73
37078;BME280;22989;55.998;37.212;2022-08-05T04:16:57;99632.78;;;28.43;41.25
37078;BME280;22989;55.998;37.212;2022-08-05T04:19:24;99623.72;;;27.10;43.51
37078;BME280;22989;55.998;37.212;2022-08-05T04:21:49;99628.38;;;26.03;46.14
37078;BME280;22989;55.998;37.212;2022-08-05T04:24:15;99628.50;;;25.37;47.91
37078;BME280;22989;55.998;37.212;2022-08-05T04:26:41;99632.47;;;24.95;49.35
37078;BME280;22989;55.998;37.212;2022-08-05T04:29:07;99636.81;;;24.62;50.61
37078;BME280;22989;55.998;37.212;2022-08-05T04:31:33;99633.00;;;24.51;51.42
37078;BME280;22989;55.998;37.212;2022-08-05T04:33:59;99632.78;;;25.06;50.71
37078;BME280;22989;55.998;37.212;2022-08-05T04:36:24;99630.53;;;25.94;48.94
37078;BME280;22989;55.998;37.212;2022-08-05T04:38:50;99627.38;;;25.73;49.03
37078;BME280;22989;55.998;37.212;2022-08-05T04:41:16;99630.44;;;25.50;49.37
37078;BME280;22989;55.998;37.212;2022-08-05T04:43:42;99629.03;;;25.10;49.93
37078;BME280;22989;55.998;37.212;2022-08-05T04:46:08;99632.25;;;25.00;50.72
37078;BME280;22989;55.998;37.212;2022-08-05T04:48:33;99622.50;;;25.18;50.39
37078;BME280;22989;55.998;37.212;2022-08-05T04:50:59;99625.16;;;25.82;49.20
37078;BME280;22989;55.998;37.212;2022-08-05T04:53:25;99629.25;;;25.55;49.10
37078;BME280;22989;55.998;37.212;2022-08-05T04:55:52;99635.19;;;24.93;50.77
37078;BME280;22989;55.998;37.212;2022-08-05T04:58:18;99643.50;;;24.51;51.80
37078;BME280;22989;55.998;37.212;2022-08-05T05:00:44;99642.69;;;24.15;53.05
37078;BME280;22989;55.998;37.212;2022-08-05T05:03:10;99640.41;;;23.90;53.92
37078;BME280;22989;55.998;37.212;2022-08-05T05:05:36;99644.97;;;23.67;54.90
37078;BME280;22989;55.998;37.212;2022-08-05T05:08:06;99643.06;;;23.52;55.81
37078;BME280;22989;55.998;37.212;2022-08-05T05:10:38;99643.66;;;23.39;56.54
37078;BME280;22989;55.998;37.212;2022-08-05T05:15:41;99640.63;;;23.47;56.69
37078;BME280;22989;55.998;37.212;2022-08-05T05:18:07;99637.44;;;23.78;55.97
37078;BME280;22989;55.998;37.212;2022-08-05T05:20:34;99644.91;;;23.86;55.61
37078;BME280;22989;55.998;37.212;2022-08-05T05:23:01;99642.44;;;23.83;55.74
37078;BME280;22989;55.998;37.212;2022-08-05T05:25:30;99644.59;;;23.75;56.35
37078;BME280;22989;55.998;37.212;2022-08-05T05:27:56;99641.94;;;23.57;56.49
37078;BME280;22989;55.998;37.212;2022-08-05T05:30:23;99640.72;;;23.45;56.76
37078;BME280;22989;55.998;37.212;2022-08-05T05:32:49;99640.06;;;23.40;57.29
37078;BME280;22989;55.998;37.212;2022-08-05T05:35:15;99641.94;;;23.38;57.49
37078;BME280;22989;55.998;37.212;2022-08-05T05:37:55;99644.06;;;23.49;57.66
37078;BME280;22989;55.998;37.212;2022-08-05T05:40:22;99649.66;;;23.60;57.26
37078;BME280;22989;55.998;37.212;2022-08-05T05:42:49;99641.81;;;23.78;57.08
37078;BME280;22989;55.998;37.212;2022-08-05T05:45:16;99653.34;;;23.94;56.61
37078;BME280;22989;55.998;37.212;2022-08-05T05:47:42;99646.53;;;24.60;55.31
37078;BME280;22989;55.998;37.212;2022-08-05T05:50:10;99649.75;;;25.01;53.92
37078;BME280;22989;55.998;37.212;2022-08-05T05:52:35;99652.13;;;25.05;53.80
37078;BME280;22989;55.998;37.212;2022-08-05T05:55:06;99641.09;;;25.15;53.92
37078;BME280;22989;55.998;37.212;2022-08-05T05:57:39;99645.47;;;25.32;53.70
37078;BME280;22989;55.998;37.212;2022-08-05T06:00:09;99646.84;;;25.55;53.18
37078;BME280;22989;55.998;37.212;2022-08-05T06:02:37;99649.38;;;25.72;52.53
37078;BME280;22989;55.998;37.212;2022-08-05T06:05:06;99651.69;;;25.62;52.09
37078;BME280;22989;55.998;37.212;2022-08-05T06:07:32;99648.38;;;25.59;52.53
37078;BME280;22989;55.998;37.212;2022-08-05T06:09:57;99637.22;;;25.70;51.99
37078;BME280;22989;55.998;37.212;2022-08-05T06:12:23;99641.72;;;25.84;51.28
37078;BME280;22989;55.998;37.212;2022-08-05T06:14:49;99642.69;;;25.67;51.50
37078;BME280;22989;55.998;37.212;2022-08-05T06:17:15;99648.28;;;25.60;51.91
37078;BME280;22989;55.998;37.212;2022-08-05T06:19:40;99648.78;;;25.83;52.00
37078;BME280;22989;55.998;37.212;2022-08-05T06:22:07;99647.72;;;26.18;50.80
37078;BME280;22989;55.998;37.212;2022-08-05T06:24:34;99652.41;;;26.43;50.22
37078;BME280;22989;55.998;37.212;2022-08-05T06:27:01;99644.09;;;27.65;48.31
37078;BME280;22989;55.998;37.212;2022-08-05T06:29:27;99648.19;;;30.25;43.00
37078;BME280;22989;55.998;37.212;2022-08-05T06:31:53;99645.47;;;32.70;38.37
37078;BME280;22989;55.998;37.212;2022-08-05T06:34:28;99643.97;;;33.58;36.75
37078;BME280;22989;55.998;37.212;2022-08-05T06:36:54;99653.53;;;35.34;33.74
37078;BME280;22989;55.998;37.212;2022-08-05T06:39:20;99658.56;;;36.90;31.11
37078;BME280;22989;55.998;37.212;2022-08-05T06:41:46;99647.34;;;37.37;29.95
37078;BME280;22989;55.998;37.212;2022-08-05T06:44:11;99643.41;;;38.40;28.71
37078;BME280;22989;55.998;37.212;2022-08-05T06:46:37;99643.41;;;38.40;28.71
37078;BME280;22989;55.998;37.212;2022-08-05T06:49:03;99661.53;;;39.19;25.74
37078;BME280;22989;55.998;37.212;2022-08-05T06:51:29;99665.03;;;37.56;27.13
37078;BME280;22989;55.998;37.212;2022-08-05T06:53:56;99663.38;;;37.97;26.44
37078;BME280;22989;55.998;37.212;2022-08-05T06:56:23;99664.59;;;38.27;25.85
37078;BME280;22989;55.998;37.212;2022-08-05T06:58:48;99662.78;;;39.00;25.56
37078;BME280;22989;55.998;37.212;2022-08-05T07:01:15;99664.75;;;39.46;24.55
37078;BME280;22989;55.998;37.212;2022-08-05T07:03:40;99664.97;;;40.52;23.88
37078;BME280;22989;55.998;37.212;2022-08-05T07:06:06;99664.88;;;41.20;22.73
37078;BME280;22989;55.998;37.212;2022-08-05T07:08:32;99671.59;;;41.83;21.31
37078;BME280;22989;55.998;37.212;2022-08-05T07:10:58;99669.97;;;40.70;21.81
37078;BME280;22989;55.998;37.212;2022-08-05T07:13:24;99671.25;;;40.44;22.72
37078;BME280;22989;55.998;37.212;2022-08-05T07:16:08;99669.25;;;39.22;23.17
37078;BME280;22989;55.998;37.212;2022-08-05T07:18:53;99666.03;;;37.64;25.54
37078;BME280;22989;55.998;37.212;2022-08-05T07:21:18;99664.13;;;38.96;24.68
37078;BME280;22989;55.998;37.212;2022-08-05T07:23:44;99666.09;;;39.73;23.71
37078;BME280;22989;55.998;37.212;2022-08-05T07:26:10;99671.53;;;40.50;22.73
37078;BME280;22989;55.998;37.212;2022-08-05T07:28:36;99674.38;;;41.01;21.87
37078;BME280;22989;55.998;37.212;2022-08-05T07:31:02;99675.38;;;41.15;21.73
37078;BME280;22989;55.998;37.212;2022-08-05T07:33:27;99677.78;;;40.50;22.30
37078;BME280;22989;55.998;37.212;2022-08-05T07:35:53;99673.09;;;39.83;22.71
37078;BME280;22989;55.998;37.212;2022-08-05T07:38:19;99676.50;;;39.14;23.39
37078;BME280;22989;55.998;37.212;2022-08-05T07:40:45;99668.06;;;37.70;25.30
37078;BME280;22989;55.998;37.212;2022-08-05T07:43:11;99668.19;;;37.52;26.08
37078;BME280;22989;55.998;37.212;2022-08-05T07:45:40;99663.22;;;38.39;25.21
37078;BME280;22989;55.998;37.212;2022-08-05T07:48:06;99658.91;;;38.94;24.32
37078;BME280;22989;55.998;37.212;2022-08-05T07:50:32;99656.44;;;38.85;23.74
37078;BME280;22989;55.998;37.212;2022-08-05T07:52:58;99665.88;;;38.64;24.27
37078;BME280;22989;55.998;37.212;2022-08-05T07:55:24;99658.69;;;37.99;24.92
37078;BME280;22989;55.998;37.212;2022-08-05T07:57:49;99649.78;;;37.82;25.19
37078;BME280;22989;55.998;37.212;2022-08-05T08:00:16;99655.91;;;37.41;25.08
37078;BME280;22989;55.998;37.212;2022-08-05T08:02:43;99664.91;;;36.18;26.56
37078;BME280;22989;55.998;37.212;2022-08-05T08:05:09;99655.19;;;35.81;27.50
37078;BME280;22989;55.998;37.212;2022-08-05T08:07:35;99660.75;;;35.52;27.92
37078;BME280;22989;55.998;37.212;2022-08-05T08:10:01;99656.84;;;35.46;28.15
37078;BME280;22989;55.998;37.212;2022-08-05T08:12:27;99645.38;;;35.08;28.67
37078;BME280;22989;55.998;37.212;2022-08-05T08:14:52;99648.13;;;34.78;29.38
37078;BME280;22989;55.998;37.212;2022-08-05T08:17:18;99655.38;;;34.58;29.76
37078;BME280;22989;55.998;37.212;2022-08-05T08:19:44;99649.38;;;34.37;29.89
37078;BME280;22989;55.998;37.212;2022-08-05T08:22:10;99648.66;;;34.35;29.84
37078;BME280;22989;55.998;37.212;2022-08-05T08:24:37;99645.97;;;34.15;30.19
37078;BME280;22989;55.998;37.212;2022-08-05T08:27:03;99646.28;;;34.02;30.26
37078;BME280;22989;55.998;37.212;2022-08-05T08:29:29;99640.97;;;33.92;30.72
37078;BME280;22989;55.998;37.212;2022-08-05T08:31:55;99636.13;;;33.57;30.08
37078;BME280;22989;55.998;37.212;2022-08-05T08:34:23;99638.25;;;33.22;30.33
37078;BME280;22989;55.998;37.212;2022-08-05T08:36:49;99642.94;;;32.89;31.29
37078;BME280;22989;55.998;37.212;2022-08-05T08:39:15;99645.59;;;32.68;30.97
37078;BME280;22989;55.998;37.212;2022-08-05T08:41:44;99649.34;;;32.56;31.54
37078;BME280;22989;55.998;37.212;2022-08-05T08:44:13;99641.63;;;31.99;31.54
37078;BME280;22989;55.998;37.212;2022-08-05T08:46:40;99646.09;;;31.66;32.29
37078;BME280;22989;55.998;37.212;2022-08-05T08:49:06;99650.34;;;31.57;32.54
37078;BME280;22989;55.998;37.212;2022-08-05T08:51:33;99646.13;;;31.43;32.15
37078;BME280;22989;55.998;37.212;2022-08-05T08:54:01;99639.88;;;31.22;33.16
37078;BME280;22989;55.998;37.212;2022-08-05T08:56:27;99637.09;;;31.23;33.41
37078;BME280;22989;55.998;37.212;2022-08-05T08:58:53;99642.78;;;31.19;33.07
37078;BME280;22989;55.998;37.212;2022-08-05T09:01:19;99634.81;;;31.07;32.41
37078;BME280;22989;55.998;37.212;2022-08-05T09:03:50;99640.81;;;30.98;33.26
37078;BME280;22989;55.998;37.212;2022-08-05T09:06:16;99629.09;;;31.01;33.99
37078;BME280;22989;55.998;37.212;2022-08-05T09:08:42;99633.25;;;30.82;31.69
37078;BME280;22989;55.998;37.212;2022-08-05T09:11:08;99645.47;;;30.38;32.06
37078;BME280;22989;55.998;37.212;2022-08-05T09:13:35;99646.00;;;30.19;32.39
37078;BME280;22989;55.998;37.212;2022-08-05T09:16:02;99642.47;;;30.07;32.61
37078;BME280;22989;55.998;37.212;2022-08-05T09:18:28;99633.53;;;30.08;32.36
37078;BME280;22989;55.998;37.212;2022-08-05T09:20:54;99633.63;;;29.95;32.26
37078;BME280;22989;55.998;37.212;2022-08-05T09:23:20;99634.31;;;29.86;32.92
37078;BME280;22989;55.998;37.212;2022-08-05T09:25:48;99633.75;;;29.93;32.72
37078;BME280;22989;55.998;37.212;2022-08-05T09:28:20;99626.84;;;30.26;32.79
37078;BME280;22989;55.998;37.212;2022-08-05T09:30:56;99625.25;;;30.59;32.19
37078;BME280;22989;55.998;37.212;2022-08-05T09:33:22;99628.28;;;30.89;31.38
37078;BME280;22989;55.998;37.212;2022-08-05T09:36:15;99622.38;;;30.85;31.06
37078;BME280;22989;55.998;37.212;2022-08-05T09:38:58;99631.19;;;30.74;32.15
37078;BME280;22989;55.998;37.212;2022-08-05T09:41:25;99620.53;;;30.52;31.04
37078;BME280;22989;55.998;37.212;2022-08-05T09:43:51;99621.06;;;30.33;31.68
37078;BME280;22989;55.998;37.212;2022-08-05T09:46:31;99619.50;;;30.41;32.50
37078;BME280;22989;55.998;37.212;2022-08-05T09:48:59;99617.59;;;30.43;32.63
37078;BME280;22989;55.998;37.212;2022-08-05T09:51:36;99622.84;;;30.68;32.33
37078;BME280;22989;55.998;37.212;2022-08-05T09:54:04;99611.81;;;30.50;32.10
37078;BME280;22989;55.998;37.212;2022-08-05T09:56:37;99616.03;;;30.41;33.03
37078;BME280;22989;55.998;37.212;2022-08-05T09:59:07;99618.25;;;30.11;32.52
37078;BME280;22989;55.998;37.212;2022-08-05T10:01:35;99617.22;;;30.01;33.07
37078;BME280;22989;55.998;37.212;2022-08-05T10:04:08;99613.75;;;30.01;32.30
37078;BME280;22989;55.998;37.212;2022-08-05T10:06:38;99613.94;;;29.86;32.79
37078;BME280;22989;55.998;37.212;2022-08-05T10:09:15;99612.66;;;29.79;32.74
37078;BME280;22989;55.998;37.212;2022-08-05T10:11:42;99612.47;;;29.45;33.83
37078;BME280;22989;55.998;37.212;2022-08-05T10:16:48;99613.50;;;29.31;34.20
37078;BME280;22989;55.998;37.212;2022-08-05T10:19:15;99610.81;;;29.44;33.49
37078;BME280;22989;55.998;37.212;2022-08-05T10:21:41;99610.97;;;29.78;32.85
37078;BME280;22989;55.998;37.212;2022-08-05T10:24:08;99603.66;;;30.17;32.51
37078;BME280;22989;55.998;37.212;2022-08-05T10:26:42;99605.16;;;30.44;32.18
37078;BME280;22989;55.998;37.212;2022-08-05T10:29:08;99600.28;;;30.62;31.65
37078;BME280;22989;55.998;37.212;2022-08-05T10:31:36;99609.69;;;30.89;31.30
37078;BME280;22989;55.998;37.212;2022-08-05T10:34:03;99607.75;;;31.02;30.64
37078;BME280;22989;55.998;37.212;2022-08-05T10:36:29;99604.63;;;31.20;30.62
37078;BME280;22989;55.998;37.212;2022-08-05T10:39:01;99611.63;;;30.87;29.67
37078;BME280;22989;55.998;37.212;2022-08-05T10:41:38;99596.16;;;30.80;30.60
37078;BME280;22989;55.998;37.212;2022-08-05T10:44:10;99605.34;;;30.88;30.42
37078;BME280;22989;55.998;37.212;2022-08-05T10:49:15;99599.19;;;30.99;29.70
37078;BME280;22989;55.998;37.212;2022-08-05T10:51:48;99598.59;;;30.84;29.87
37078;BME280;22989;55.998;37.212;2022-08-05T10:54:15;99602.19;;;30.71;30.10
37078;BME280;22989;55.998;37.212;2022-08-05T10:56:49;99605.81;;;30.82;30.58
37078;BME280;22989;55.998;37.212;2022-08-05T10:59:17;99621.66;;;30.36;30.32
37078;BME280;22989;55.998;37.212;2022-08-05T11:01:44;99619.38;;;29.72;31.15
37078;BME280;22989;55.998;37.212;2022-08-05T11:04:22;99606.44;;;29.56;31.68
37078;BME280;22989;55.998;37.212;2022-08-05T11:12:02;99595.88;;;29.91;31.47
37078;BME280;22989;55.998;37.212;2022-08-05T11:14:32;99602.81;;;30.17;30.52
37078;BME280;22989;55.998;37.212;2022-08-05T11:19:53;99597.69;;;29.91;30.13
37078;BME280;22989;55.998;37.212;2022-08-05T11:25:28;99588.97;;;29.89;30.01
37078;BME280;22989;55.998;37.212;2022-08-05T11:27:55;99586.38;;;29.76;29.34
37078;BME280;22989;55.998;37.212;2022-08-05T11:30:21;99586.56;;;29.61;30.05
37078;BME280;22989;55.998;37.212;2022-08-05T11:32:47;99584.09;;;29.83;30.27
37078;BME280;22989;55.998;37.212;2022-08-05T11:38:15;99579.06;;;30.15;29.27
37078;BME280;22989;55.998;37.212;2022-08-05T11:41:01;99580.53;;;30.30;29.13
37078;BME280;22989;55.998;37.212;2022-08-05T11:43:29;99587.53;;;30.32;29.52
37078;BME280;22989;55.998;37.212;2022-08-05T11:45:55;99582.34;;;30.41;29.64
37078;BME280;22989;55.998;37.212;2022-08-05T11:48:21;99575.41;;;30.52;28.92
37078;BME280;22989;55.998;37.212;2022-08-05T11:50:48;99571.53;;;30.56;28.83
37078;BME280;22989;55.998;37.212;2022-08-05T11:53:15;99572.44;;;30.32;28.85
37078;BME280;22989;55.998;37.212;2022-08-05T11:56:01;99575.25;;;30.42;29.48
37078;BME280;22989;55.998;37.212;2022-08-05T11:58:34;99578.66;;;30.55;28.55
37078;BME280;22989;55.998;37.212;2022-08-05T12:03:43;99564.03;;;30.50;27.81
37078;BME280;22989;55.998;37.212;2022-08-05T12:06:10;99561.50;;;30.48;28.20
37078;BME280;22989;55.998;37.212;2022-08-05T12:08:44;99567.06;;;30.56;28.48
37078;BME280;22989;55.998;37.212;2022-08-05T12:11:11;99567.09;;;30.68;28.58
37078;BME280;22989;55.998;37.212;2022-08-05T12:13:52;99574.19;;;30.78;28.51
37078;BME280;22989;55.998;37.212;2022-08-05T12:16:18;99558.97;;;30.92;29.17
37078;BME280;22989;55.998;37.212;2022-08-05T12:18:45;99559.84;;;31.04;28.07
37078;BME280;22989;55.998;37.212;2022-08-05T12:21:17;99564.28;;;31.15;27.98
37078;BME280;22989;55.998;37.212;2022-08-05T12:24:04;99559.41;;;31.31;27.91
37078;BME280;22989;55.998;37.212;2022-08-05T12:26:34;99557.09;;;31.38;28.09
37078;BME280;22989;55.998;37.212;2022-08-05T12:29:03;99559.31;;;31.54;27.93
37078;BME280;22989;55.998;37.212;2022-08-05T12:31:31;99559.50;;;31.73;27.12
37078;BME280;22989;55.998;37.212;2022-08-05T12:33:59;99553.69;;;31.79;27.08
37078;BME280;22989;55.998;37.212;2022-08-05T12:36:25;99547.41;;;32.02;26.80
37078;BME280;22989;55.998;37.212;2022-08-05T12:38:50;99556.25;;;32.23;26.93
37078;BME280;22989;55.998;37.212;2022-08-05T12:41:16;99548.88;;;32.37;26.83
37078;BME280;22989;55.998;37.212;2022-08-05T12:43:53;99551.06;;;32.53;27.07
37078;BME280;22989;55.998;37.212;2022-08-05T12:46:28;99553.00;;;32.51;26.72
37078;BME280;22989;55.998;37.212;2022-08-05T12:51:24;99551.59;;;31.62;27.55
37078;BME280;22989;55.998;37.212;2022-08-05T12:53:57;99550.75;;;31.18;27.90
37078;BME280;22989;55.998;37.212;2022-08-05T12:56:24;99541.94;;;30.94;28.52
37078;BME280;22989;55.998;37.212;2022-08-05T13:01:39;99543.50;;;30.97;28.62
37078;BME280;22989;55.998;37.212;2022-08-05T13:04:05;99537.00;;;30.78;28.21
37078;BME280;22989;55.998;37.212;2022-08-05T13:06:31;99534.97;;;30.71;28.36
37078;BME280;22989;55.998;37.212;2022-08-05T13:08:57;99528.09;;;30.68;28.23
37078;BME280;22989;55.998;37.212;2022-08-05T13:11:28;99537.84;;;30.56;28.75
37078;BME280;22989;55.998;37.212;2022-08-05T13:13:57;99537.69;;;30.24;29.51
37078;BME280;22989;55.998;37.212;2022-08-05T13:16:23;99531.75;;;30.09;29.89
37078;BME280;22989;55.998;37.212;2022-08-05T13:18:50;99523.50;;;29.89;29.71
37078;BME280;22989;55.998;37.212;2022-08-05T13:21:16;99523.59;;;29.76;29.94
37078;BME280;22989;55.998;37.212;2022-08-05T13:23:42;99529.84;;;29.75;30.09
37078;BME280;22989;55.998;37.212;2022-08-05T13:26:07;99524.09;;;29.82;29.65
37078;BME280;22989;55.998;37.212;2022-08-05T13:28:33;99530.97;;;29.84;29.87
37078;BME280;22989;55.998;37.212;2022-08-05T13:30:59;99529.28;;;29.83;29.82